createdAt,value
2019-01-04T00:00:55.349Z,11.67
2019-01-04T00:03:24.482Z,17.50
2019-01-04T00:05:51.271Z,13.20
2019-01-04T00:08:18.169Z,14.23
2019-01-04T00:10:46.725Z,12.63
2019-01-04T00:13:14.273Z,13.90
2019-01-04T00:15:41.422Z,12.77
2019-01-04T00:18:08.248Z,11.37
2019-01-04T00:20:35.642Z,12.87
2019-01-04T00:23:02.452Z,10.33
2019-01-04T00:25:29.206Z,13.80
2019-01-04T00:27:55.966Z,11.13
2019-01-04T00:30:25.138Z,11.50
2019-01-04T00:32:51.974Z,12.50
2019-01-04T00:35:18.728Z,10.80
2019-01-04T00:37:45.528Z,12.33
2019-01-04T00:40:12.615Z,15.20
2019-01-04T00:42:39.595Z,12.47
2019-01-04T00:45:06.946Z,9.87
2019-01-04T00:47:33.683Z,9.23
2019-01-04T00:50:00.508Z,11.60
2019-01-04T00:52:27.431Z,12.77
2019-01-04T00:54:54.350Z,18.40
2019-01-04T00:57:58.078Z,16.60
2019-01-04T01:01:16.330Z,15.03
2019-01-04T01:04:08.295Z,14.70
2019-01-04T01:07:11.455Z,15.07
2019-01-04T01:10:34.772Z,11.17
2019-01-04T01:13:48.872Z,14.70
2019-01-04T01:16:56.702Z,13.70
2019-01-04T01:20:08.255Z,10.70
2019-01-04T01:23:12.077Z,16.57
2019-01-04T01:26:13.754Z,11.73
2019-01-04T01:29:23.181Z,17.53
2019-01-04T01:32:36.826Z,10.70
2019-01-04T01:35:32.678Z,18.27
2019-01-04T01:38:57.680Z,10.13
2019-01-04T01:42:18.897Z,12.60
2019-01-04T01:45:23.279Z,13.10
2019-01-04T01:48:13.527Z,13.40
2019-01-04T01:51:07.582Z,12.30
2019-01-04T01:53:42.913Z,12.77
2019-01-04T01:56:09.672Z,17.67
2019-01-04T01:58:36.617Z,15.13
2019-01-04T02:01:03.444Z,10.37
2019-01-04T02:03:30.317Z,12.67
2019-01-04T02:05:57.049Z,10.37
2019-01-04T02:08:24.617Z,10.70
2019-01-04T02:10:51.566Z,10.93
2019-01-04T02:13:18.841Z,11.47
2019-01-04T02:15:45.594Z,13.23
2019-01-04T02:18:12.476Z,11.03
2019-01-04T02:20:39.198Z,11.33
2019-01-04T02:23:05.991Z,12.60
2019-01-04T02:25:33.115Z,9.43
2019-01-04T02:27:59.856Z,8.47
2019-01-04T02:30:27.971Z,10.07
2019-01-04T02:32:54.820Z,9.20
2019-01-04T02:35:21.626Z,10.30
2019-01-04T02:37:48.370Z,17.83
2019-01-04T02:40:15.102Z,10.10
2019-01-04T02:42:41.941Z,9.87
2019-01-04T02:45:08.882Z,9.03
2019-01-04T02:47:36.102Z,9.23
2019-01-04T02:50:06.558Z,10.67
2019-01-04T02:52:33.294Z,13.43
2019-01-04T02:55:00.262Z,11.97
2019-01-04T02:57:27.046Z,9.90
2019-01-04T02:59:54.653Z,10.00
2019-01-04T03:02:21.385Z,9.40
2019-01-04T03:04:48.483Z,9.90
2019-01-04T03:07:15.204Z,13.90
2019-01-04T03:09:42.120Z,11.13
2019-01-04T03:12:09.246Z,8.93
2019-01-04T03:14:35.988Z,9.63
2019-01-04T03:17:03.138Z,8.57
2019-01-04T03:19:29.973Z,13.17
2019-01-04T03:21:56.705Z,11.03
2019-01-04T03:24:23.437Z,9.20
2019-01-04T03:26:50.125Z,7.47
2019-01-04T03:29:16.851Z,10.17
2019-01-04T03:31:43.650Z,9.73
2019-01-04T03:34:10.325Z,12.07
2019-01-04T03:36:37.051Z,10.23
2019-01-04T03:39:04.456Z,9.67
2019-01-04T03:41:31.190Z,11.73
2019-01-04T03:43:57.931Z,8.77
2019-01-04T03:46:25.033Z,9.40
2019-01-04T03:48:52.301Z,8.33
2019-01-04T03:51:19.789Z,8.10
2019-01-04T03:53:46.530Z,7.67
2019-01-04T03:56:13.352Z,9.90
2019-01-04T03:58:40.443Z,8.00
2019-01-04T04:01:07.299Z,7.90
2019-01-04T04:03:34.053Z,8.23
2019-01-04T04:06:00.747Z,7.60
2019-01-04T04:08:27.495Z,8.17
2019-01-04T04:10:58.965Z,10.17
2019-01-04T04:13:28.033Z,7.67
2019-01-04T04:15:54.774Z,10.50
2019-01-04T04:18:21.638Z,11.07
2019-01-04T04:20:48.400Z,9.87
2019-01-04T04:23:15.104Z,10.20
2019-01-04T04:25:41.833Z,10.30
2019-01-04T04:28:08.613Z,12.10
2019-01-04T04:30:38.472Z,12.80
2019-01-04T04:33:05.472Z,10.70
2019-01-04T04:35:32.285Z,11.93
2019-01-04T04:38:00.485Z,9.00
2019-01-04T04:40:27.379Z,8.60
2019-01-04T04:42:54.192Z,9.30
2019-01-04T04:45:21.183Z,8.77
2019-01-04T04:47:47.999Z,10.80
2019-01-04T04:50:14.854Z,9.23
2019-01-04T04:52:41.974Z,8.63
2019-01-04T04:55:08.726Z,8.30
2019-01-04T04:57:35.483Z,9.13
2019-01-04T05:00:02.398Z,9.67
2019-01-04T05:02:29.240Z,9.30
2019-01-04T05:04:55.979Z,11.00
2019-01-04T05:07:22.847Z,10.90
2019-01-04T05:09:49.996Z,12.63
2019-01-04T05:12:16.743Z,10.07
2019-01-04T05:14:45.944Z,8.00
2019-01-04T05:17:14.666Z,8.93
2019-01-04T05:19:41.381Z,9.70
2019-01-04T05:22:08.367Z,12.30
2019-01-04T05:24:35.273Z,14.47
2019-01-04T05:27:01.998Z,11.23
2019-01-04T05:29:28.890Z,7.97
2019-01-04T05:31:55.736Z,10.43
2019-01-04T05:34:22.511Z,9.20
2019-01-04T05:36:49.302Z,8.50
2019-01-04T05:39:16.387Z,23.33
2019-01-04T05:41:43.121Z,10.70
2019-01-04T05:44:10.284Z,9.30
2019-01-04T05:46:37.062Z,8.53
2019-01-04T05:49:04.091Z,8.20
2019-01-04T05:51:30.807Z,11.23
2019-01-04T05:53:57.853Z,10.47
2019-01-04T05:56:24.655Z,8.73
2019-01-04T05:58:51.385Z,10.20
2019-01-04T06:01:18.274Z,8.70
2019-01-04T06:03:45.018Z,13.03
2019-01-04T06:06:11.743Z,9.77
2019-01-04T06:08:38.640Z,11.10
2019-01-04T06:11:08.874Z,7.97
2019-01-04T06:13:35.612Z,11.27
2019-01-04T06:16:02.712Z,10.90
2019-01-04T06:18:29.469Z,9.83
2019-01-04T06:20:56.618Z,13.33
2019-01-04T06:23:23.871Z,9.73
2019-01-04T06:25:50.589Z,12.67
2019-01-04T06:28:17.343Z,15.13
2019-01-04T06:30:44.274Z,14.73
2019-01-04T06:33:10.972Z,10.60
2019-01-04T06:35:37.787Z,17.33
2019-01-04T06:38:05.043Z,15.10
2019-01-04T06:40:32.144Z,17.80
2019-01-04T06:42:59.036Z,16.30
2019-01-04T06:45:25.959Z,15.30
2019-01-04T06:47:52.800Z,13.33
2019-01-04T06:50:19.522Z,12.27
2019-01-04T06:52:46.806Z,10.87
2019-01-04T06:55:55.958Z,11.43
2019-01-04T06:58:23.060Z,14.37
2019-01-04T07:00:50.015Z,12.10
2019-01-04T07:03:16.860Z,15.17
2019-01-04T07:05:43.598Z,13.27
2019-01-04T07:08:11.328Z,13.87
2019-01-04T07:10:38.313Z,15.73
2019-01-04T07:13:05.123Z,15.83
2019-01-04T07:15:31.999Z,15.23
2019-01-04T07:17:58.809Z,14.00
2019-01-04T07:20:25.600Z,15.07
2019-01-04T07:22:52.496Z,14.03
2019-01-04T07:25:19.236Z,16.43
2019-01-04T07:27:45.978Z,15.60
2019-01-04T07:30:12.766Z,16.67
2019-01-04T07:32:39.596Z,13.83
2019-01-04T07:35:08.318Z,16.10
2019-01-04T07:37:37.601Z,13.63
2019-01-04T07:40:05.730Z,11.50
2019-01-04T07:42:32.560Z,11.10
2019-01-04T07:44:59.360Z,11.83
2019-01-04T07:47:26.109Z,11.13
2019-01-04T07:49:54.765Z,12.70
2019-01-04T07:52:21.561Z,12.30
2019-01-04T07:54:48.556Z,16.10
2019-01-04T07:57:15.567Z,15.93
2019-01-04T07:59:43.140Z,12.10
2019-01-04T08:02:48.960Z,14.30
2019-01-04T08:05:18.324Z,14.27
2019-01-04T08:07:46.431Z,12.07
2019-01-04T08:10:13.182Z,13.10
2019-01-04T08:12:40.052Z,12.97
2019-01-04T08:15:07.686Z,10.73
2019-01-04T08:17:34.501Z,14.23
2019-01-04T08:20:01.348Z,15.57
2019-01-04T08:22:28.121Z,11.60
2019-01-04T08:24:54.799Z,16.17
2019-01-04T08:27:21.516Z,12.37
2019-01-04T08:29:48.778Z,14.03
2019-01-04T08:32:15.517Z,14.37
2019-01-04T08:34:42.493Z,17.27
2019-01-04T08:37:09.459Z,15.80
2019-01-04T08:39:36.238Z,13.10
2019-01-04T08:42:02.965Z,21.07
2019-01-04T08:44:29.660Z,10.90
2019-01-04T08:46:56.383Z,12.07
2019-01-04T08:49:23.264Z,11.93
2019-01-04T08:51:50.030Z,11.90
2019-01-04T08:54:16.982Z,11.30
2019-01-04T08:56:43.790Z,10.43
2019-01-04T08:59:10.580Z,11.37
2019-01-04T09:01:37.397Z,16.07
2019-01-04T09:04:04.088Z,12.60
2019-01-04T09:06:30.968Z,11.37
2019-01-04T09:08:59.460Z,9.60
2019-01-04T09:11:26.198Z,10.43
2019-01-04T09:13:53.527Z,11.47
2019-01-04T09:16:20.293Z,12.03
2019-01-04T09:18:47.218Z,14.10
2019-01-04T09:21:14.038Z,10.40
2019-01-04T09:23:40.794Z,11.43
2019-01-04T09:26:07.703Z,10.33
2019-01-04T09:28:34.447Z,11.13
2019-01-04T09:31:01.344Z,10.90
2019-01-04T09:33:28.051Z,15.53
2019-01-04T09:35:54.768Z,12.97
2019-01-04T09:38:21.599Z,11.90
2019-01-04T09:41:10.512Z,15.70
2019-01-04T09:43:37.360Z,10.63
2019-01-04T09:46:04.100Z,13.47
2019-01-04T09:48:30.864Z,12.83
2019-01-04T09:50:57.885Z,16.93
2019-01-04T09:53:24.604Z,15.47
2019-01-04T09:55:51.476Z,14.90
2019-01-04T09:58:18.446Z,15.97
2019-01-04T10:00:45.476Z,15.23
2019-01-04T10:03:12.234Z,17.10
2019-01-04T10:05:38.944Z,18.27
2019-01-04T10:08:05.752Z,17.40
2019-01-04T10:10:32.578Z,22.83
2019-01-04T10:12:59.472Z,17.50
2019-01-04T10:15:26.214Z,16.40
2019-01-04T10:17:52.978Z,20.77
2019-01-04T10:20:19.703Z,14.40
2019-01-04T10:22:46.449Z,15.90
2019-01-04T10:25:13.420Z,15.30
2019-01-04T10:27:40.414Z,15.90
2019-01-04T10:30:08.488Z,16.63
2019-01-04T10:32:35.339Z,12.30
2019-01-04T10:35:02.175Z,13.87
2019-01-04T10:37:30.121Z,12.77
2019-01-04T10:39:58.540Z,16.33
2019-01-04T10:42:25.422Z,11.83
2019-01-04T10:44:52.154Z,14.20
2019-01-04T10:47:18.863Z,13.57
2019-01-04T10:49:48.684Z,16.40
2019-01-04T10:52:17.877Z,17.20
2019-01-04T10:54:44.664Z,19.50
2019-01-04T10:57:11.501Z,14.63
2019-01-04T10:59:40.039Z,14.90
2019-01-04T11:02:09.225Z,16.60
2019-01-04T11:04:36.596Z,22.43
2019-01-04T11:07:03.747Z,16.10
2019-01-04T11:09:30.838Z,12.40
2019-01-04T11:11:57.686Z,14.30
2019-01-04T11:14:24.931Z,15.23
2019-01-04T11:16:51.779Z,12.77
2019-01-04T11:19:18.623Z,18.73
2019-01-04T11:21:45.426Z,16.03
2019-01-04T11:24:56.102Z,15.60
2019-01-04T11:27:36.900Z,15.40
2019-01-04T11:30:28.530Z,16.23
2019-01-04T11:33:15.240Z,15.20
2019-01-04T11:36:22.835Z,12.80
2019-01-04T11:39:27.461Z,16.03
2019-01-04T11:42:48.049Z,10.37
2019-01-04T11:45:26.106Z,15.17
2019-01-04T11:48:37.041Z,10.97
2019-01-04T11:51:57.126Z,11.07
2019-01-04T11:54:26.951Z,16.47
2019-01-04T11:56:53.695Z,15.23
2019-01-04T11:59:23.007Z,12.03
2019-01-04T12:01:49.865Z,10.40
2019-01-04T12:04:16.856Z,10.90
2019-01-04T12:06:43.833Z,11.80
2019-01-04T12:09:10.564Z,11.67
2019-01-04T12:11:37.477Z,10.77
2019-01-04T12:14:04.194Z,14.37
2019-01-04T12:16:31.374Z,14.37
2019-01-04T12:18:58.177Z,10.33
2019-01-04T12:21:25.058Z,11.23
2019-01-04T12:23:51.802Z,12.00
2019-01-04T12:26:18.546Z,13.20
2019-01-04T12:28:45.491Z,12.03
2019-01-04T12:31:12.317Z,14.73
2019-01-04T12:33:39.054Z,13.00
2019-01-04T12:36:05.823Z,13.47
2019-01-04T12:38:33.065Z,11.00
2019-01-04T12:40:59.798Z,12.30
2019-01-04T12:43:26.731Z,9.67
2019-01-04T12:45:53.918Z,14.63
2019-01-04T12:48:22.786Z,13.73
2019-01-04T12:50:49.525Z,11.20
2019-01-04T12:53:16.368Z,12.33
2019-01-04T12:55:43.132Z,9.93
2019-01-04T12:58:10.199Z,21.73
2019-01-04T13:00:37.011Z,10.90
2019-01-04T13:03:03.989Z,9.60
2019-01-04T13:05:33.867Z,14.87
2019-01-04T13:08:00.756Z,13.73
2019-01-04T13:10:27.556Z,18.07
2019-01-04T13:12:54.418Z,11.70
2019-01-04T13:15:21.659Z,12.80
2019-01-04T13:17:50.868Z,16.53
2019-01-04T13:20:17.706Z,17.80
2019-01-04T13:22:44.609Z,13.30
2019-01-04T13:25:11.384Z,13.57
2019-01-04T13:27:38.211Z,13.07
2019-01-04T13:30:05.095Z,13.53
2019-01-04T13:32:32.140Z,15.47
2019-01-04T13:34:59.253Z,26.23
2019-01-04T13:37:26.619Z,12.40
2019-01-04T13:39:53.506Z,12.60
2019-01-04T13:42:20.349Z,11.60
2019-01-04T13:44:47.247Z,16.63
2019-01-04T13:47:14.304Z,10.03
2019-01-04T13:49:41.195Z,13.30
2019-01-04T13:52:10.976Z,17.17
2019-01-04T13:54:37.875Z,10.87
2019-01-04T13:57:04.710Z,11.53
2019-01-04T13:59:31.689Z,9.97
2019-01-04T14:02:00.575Z,13.43
2019-01-04T14:04:29.920Z,13.53
2019-01-04T14:06:56.789Z,12.00
2019-01-04T14:09:23.662Z,19.90
2019-01-04T14:11:50.605Z,11.17
2019-01-04T14:14:17.509Z,10.43
2019-01-04T14:16:44.898Z,12.80
2019-01-04T14:19:11.890Z,9.43
2019-01-04T14:21:38.830Z,13.13
2019-01-04T14:24:05.882Z,7.97
2019-01-04T14:26:32.871Z,14.53
2019-01-04T14:28:59.971Z,11.40
2019-01-04T14:31:28.174Z,11.77
2019-01-04T14:33:55.312Z,15.57
2019-01-04T14:36:22.120Z,15.43
2019-01-04T14:38:50.487Z,20.23
2019-01-04T14:41:23.290Z,10.20
2019-01-04T14:43:46.790Z,14.00
2019-01-04T14:46:13.885Z,15.37
2019-01-04T14:48:41.067Z,10.80
2019-01-04T14:51:07.987Z,14.00
2019-01-04T14:53:35.073Z,9.17
2019-01-04T14:56:02.112Z,9.30
2019-01-04T14:58:28.987Z,8.17
2019-01-04T15:00:56.071Z,8.87
2019-01-04T15:03:22.874Z,10.77
2019-01-04T15:05:50.570Z,9.80
2019-01-04T15:08:17.600Z,13.13
2019-01-04T15:10:46.475Z,10.80
2019-01-04T15:13:13.328Z,11.00
2019-01-04T15:15:40.129Z,11.97
2019-01-04T15:18:08.412Z,13.43
2019-01-04T15:20:35.332Z,9.80
2019-01-04T15:23:02.225Z,10.17
2019-01-04T15:25:29.377Z,13.73
2019-01-04T15:27:56.687Z,10.83
2019-01-04T15:30:23.656Z,11.70
2019-01-04T15:32:50.474Z,13.10
2019-01-04T15:35:17.542Z,8.93
2019-01-04T15:37:44.426Z,13.10
2019-01-04T15:40:11.289Z,12.53
2019-01-04T15:42:38.270Z,12.33
2019-01-04T15:45:06.453Z,11.90
2019-01-04T15:47:33.353Z,10.47
2019-01-04T15:50:00.743Z,13.23
2019-01-04T15:52:27.661Z,13.03
2019-01-04T15:54:54.475Z,10.37
2019-01-04T15:57:21.309Z,9.20
2019-01-04T15:59:48.256Z,10.87
2019-01-04T16:02:17.036Z,13.50
2019-01-04T16:04:43.920Z,23.13
2019-01-04T16:07:11.122Z,19.30
2019-01-04T16:09:38.000Z,11.97
2019-01-04T16:12:06.350Z,10.30
2019-01-04T16:14:33.647Z,12.37
2019-01-04T16:17:00.531Z,9.77
2019-01-04T16:19:27.350Z,12.73
2019-01-04T16:21:54.197Z,7.13
2019-01-04T16:24:21.092Z,10.13
2019-01-04T16:26:48.024Z,12.53
2019-01-04T16:29:14.755Z,9.60
2019-01-04T16:31:41.483Z,6.27
2019-01-04T16:34:08.314Z,8.57
2019-01-04T16:36:35.193Z,8.40
2019-01-04T16:39:02.808Z,8.77
2019-01-04T16:41:30.619Z,4.70
2019-01-04T16:43:59.321Z,5.77
2019-01-04T16:46:26.063Z,6.40
2019-01-04T16:48:52.817Z,5.43
2019-01-04T16:51:19.773Z,6.40
2019-01-04T16:53:47.423Z,6.17
2019-01-04T16:56:14.507Z,7.90
2019-01-04T16:58:41.594Z,7.10
2019-01-04T17:01:08.596Z,6.03
2019-01-04T17:03:36.584Z,8.00
2019-01-04T17:06:03.706Z,8.63
2019-01-04T17:08:30.485Z,7.00
2019-01-04T17:10:57.660Z,8.50
2019-01-04T17:13:24.601Z,5.90
2019-01-04T17:15:51.395Z,6.57
2019-01-04T17:18:19.249Z,7.57
2019-01-04T17:20:46.168Z,9.87
2019-01-04T17:23:13.240Z,7.97
2019-01-04T17:25:40.017Z,7.93
2019-01-04T17:28:06.842Z,9.13
2019-01-04T17:30:33.727Z,11.43
2019-01-04T17:33:00.867Z,8.73
2019-01-04T17:35:27.918Z,6.23
2019-01-04T17:37:54.791Z,7.67
2019-01-04T17:40:21.654Z,9.73
2019-01-04T17:42:49.030Z,7.67
2019-01-04T17:45:15.934Z,6.70
2019-01-04T17:47:42.662Z,9.73
2019-01-04T17:50:09.391Z,15.87
2019-01-04T17:52:36.089Z,13.40
2019-01-04T17:55:03.560Z,7.10
2019-01-04T17:57:30.420Z,6.87
2019-01-04T18:00:00.322Z,8.87
2019-01-04T18:02:27.144Z,9.47
2019-01-04T18:04:56.186Z,7.97
2019-01-04T18:07:22.941Z,10.93
2019-01-04T18:09:50.020Z,9.63
2019-01-04T18:12:16.869Z,14.00
2019-01-04T18:14:44.033Z,8.87
2019-01-04T18:17:10.938Z,10.37
2019-01-04T18:19:37.750Z,7.03
2019-01-04T18:22:05.784Z,9.37
2019-01-04T18:24:32.775Z,11.50
2019-01-04T18:26:59.728Z,13.30
2019-01-04T18:29:26.550Z,7.90
2019-01-04T18:31:53.294Z,7.20
2019-01-04T18:34:20.105Z,6.33
2019-01-04T18:36:47.109Z,10.70
2019-01-04T18:39:14.180Z,6.37
2019-01-04T18:41:43.736Z,6.50
2019-01-04T18:44:10.586Z,8.30
2019-01-04T18:46:37.595Z,8.07
2019-01-04T18:49:04.484Z,6.67
2019-01-04T18:51:31.246Z,7.97
2019-01-04T18:53:58.502Z,12.20
2019-01-04T18:56:25.623Z,10.17
2019-01-04T18:58:52.395Z,10.60
2019-01-04T19:01:19.415Z,9.13
2019-01-04T19:03:46.493Z,11.63
2019-01-04T19:06:13.408Z,11.70
2019-01-04T19:08:40.361Z,9.30
2019-01-04T19:11:07.251Z,8.40
2019-01-04T19:13:34.176Z,11.27
2019-01-04T19:16:01.082Z,8.13
2019-01-04T19:18:27.931Z,8.20
2019-01-04T19:20:54.859Z,7.60
2019-01-04T19:23:21.703Z,8.90
2019-01-04T19:25:48.798Z,8.60
2019-01-04T19:28:15.591Z,10.70
2019-01-04T19:30:42.456Z,9.17
2019-01-04T19:33:09.526Z,9.30
2019-01-04T19:35:36.378Z,12.40
2019-01-04T19:38:03.496Z,12.30
2019-01-04T19:40:30.264Z,11.40
2019-01-04T19:42:57.171Z,12.33
2019-01-04T19:45:23.928Z,13.50
2019-01-04T19:47:53.199Z,11.77
2019-01-04T19:50:21.368Z,12.03
2019-01-04T19:52:48.417Z,9.60
2019-01-04T19:55:15.497Z,9.90
2019-01-04T19:57:42.612Z,10.00
2019-01-04T20:00:09.744Z,12.37
2019-01-04T20:02:36.808Z,14.57
2019-01-04T20:05:03.865Z,14.63
2019-01-04T20:08:11.504Z,11.93
2019-01-04T20:11:49.091Z,14.60
2019-01-04T20:15:25.290Z,13.07
2019-01-04T20:18:12.764Z,12.70
2019-01-04T20:20:57.704Z,11.60
2019-01-04T20:23:43.026Z,11.90
2019-01-04T20:26:44.200Z,17.67
2019-01-04T20:29:30.522Z,13.87
2019-01-04T20:32:35.540Z,15.03
2019-01-04T20:35:20.734Z,11.93
2019-01-04T20:38:05.734Z,13.77
2019-01-04T20:40:52.204Z,15.20
2019-01-04T20:43:36.915Z,12.93
2019-01-04T20:46:23.509Z,16.20
2019-01-04T20:49:19.146Z,14.63
2019-01-04T20:52:04.250Z,15.27
2019-01-04T20:54:56.442Z,16.27
2019-01-04T20:57:44.524Z,11.87
2019-01-04T21:00:33.710Z,13.70
2019-01-04T21:03:19.160Z,18.03
2019-01-04T21:06:14.341Z,19.40
2019-01-04T21:09:00.840Z,16.70
2019-01-04T21:11:52.630Z,21.90
2019-01-04T21:14:42.469Z,21.93
2019-01-04T21:17:37.965Z,17.03
2019-01-04T21:20:27.300Z,13.20
2019-01-04T21:23:07.529Z,18.03
2019-01-04T21:25:52.493Z,20.90
2019-01-04T21:28:54.269Z,16.17
2019-01-04T21:31:40.015Z,18.73
2019-01-04T21:34:25.001Z,21.10
2019-01-04T21:37:10.573Z,14.37
2019-01-04T21:39:55.716Z,19.57
2019-01-04T21:42:41.027Z,21.43
2019-01-04T21:45:26.062Z,17.20
2019-01-04T21:48:21.291Z,21.57
2019-01-04T21:51:06.680Z,19.50
2019-01-04T21:54:08.384Z,16.17
2019-01-04T21:56:53.614Z,22.67
2019-01-04T21:59:39.867Z,21.20
2019-01-04T22:02:33.935Z,23.00
2019-01-04T22:05:19.253Z,21.47
2019-01-04T22:08:17.737Z,22.63
2019-01-04T22:11:19.433Z,23.23
2019-01-04T22:14:07.459Z,21.23
2019-01-04T22:16:52.099Z,20.47
2019-01-04T22:19:40.037Z,21.30
2019-01-04T22:22:29.408Z,22.47
2019-01-04T22:25:14.357Z,23.47
2019-01-04T22:28:18.758Z,23.13
2019-01-04T22:31:08.391Z,21.50
2019-01-04T22:33:57.660Z,19.40
2019-01-04T22:36:41.818Z,21.70
2019-01-04T22:39:40.397Z,21.37
2019-01-04T22:42:29.765Z,28.10
2019-01-04T22:45:19.830Z,23.50
2019-01-04T22:48:06.177Z,24.90
2019-01-04T22:50:52.384Z,24.30
2019-01-04T22:53:48.016Z,22.03
2019-01-04T22:56:40.379Z,25.37
2019-01-04T22:59:33.333Z,22.67
2019-01-04T23:02:25.368Z,25.00
2019-01-04T23:05:25.208Z,23.37
2019-01-04T23:08:10.408Z,25.60
2019-01-04T23:11:03.008Z,22.53
2019-01-04T23:13:48.171Z,21.97
2019-01-04T23:16:36.279Z,21.87
2019-01-04T23:19:21.647Z,25.77
2019-01-04T23:22:22.584Z,24.00
2019-01-04T23:25:07.767Z,23.63
2019-01-04T23:28:06.106Z,26.07
2019-01-04T23:30:58.002Z,26.30
2019-01-04T23:33:44.406Z,22.70
2019-01-04T23:36:49.198Z,24.80
2019-01-04T23:39:41.788Z,22.73
2019-01-04T23:42:37.407Z,30.13
2019-01-04T23:45:24.219Z,21.67
2019-01-04T23:48:18.662Z,24.67
2019-01-04T23:50:57.638Z,20.27
2019-01-04T23:53:53.025Z,23.40
2019-01-04T23:56:38.555Z,23.47
2019-01-04T23:59:22.804Z,23.93
